Time;durP1;ratioP1;P1;durP2;ratioP2;P2;SDS_P1;SDS_P2;PMS_P1;PMS_P2;Temp;Humidity;BMP_temperature;BMP_pressure;BME280_temperature;BME280_humidity;BME280_pressure;Samples;Min_cycle;Max_cycle;Signal;HPM_P1;HPM_P2
2021/08/30 00:02:04;;;;;;;11.80;8.10;;;384.70;2329.60;;;;;;5022986;28;20034;-84
2021/08/30 00:04:29;;;;;;;10.88;7.70;;;384.70;2329.60;;;;;;5030761;28;20036;-82
2021/08/30 00:06:55;;;;;;;10.60;8.93;;;384.80;2329.60;;;;;;5032396;28;20377;-84
2021/08/30 00:09:21;;;;;;;9.73;7.80;;;384.90;2329.60;;;;;;5022935;28;20052;-83
2021/08/30 00:11:46;;;;;;;8.93;7.82;;;384.70;2329.60;;;;;;5025730;28;20106;-84
2021/08/30 00:14:12;;;;;;;12.55;8.85;;;384.70;2329.60;;;;;;5032699;28;20029;-82
2021/08/30 00:16:38;;;;;;;11.73;8.38;;;384.60;2329.60;;;;;;5041456;28;20029;-83
2021/08/30 00:19:04;;;;;;;8.65;7.70;;;384.70;2329.60;;;;;;5043536;28;20021;-83
2021/08/30 00:21:30;;;;;;;10.70;8.35;;;384.60;2329.60;;;;;;5034588;28;20104;-83
2021/08/30 00:23:56;;;;;;;9.30;8.20;;;384.60;2329.60;;;;;;5034154;28;20563;-83
2021/08/30 00:26:21;;;;;;;12.48;8.05;;;384.60;2329.60;;;;;;5033910;28;20025;-83
2021/08/30 00:28:47;;;;;;;9.63;7.72;;;384.70;2329.60;;;;;;5034238;28;20021;-83
2021/08/30 00:31:13;;;;;;;8.52;7.63;;;384.70;2329.60;;;;;;5033836;28;20120;-82
2021/08/30 00:33:39;;;;;;;12.20;7.65;;;384.70;2329.60;;;;;;5034349;28;20472;-82
2021/08/30 00:36:04;;;;;;;12.68;9.15;;;384.60;2329.60;;;;;;5034996;28;20021;-82
2021/08/30 00:38:30;;;;;;;8.98;7.80;;;384.60;2329.60;;;;;;5035277;28;20099;-83
2021/08/30 00:40:56;;;;;;;10.07;8.90;;;384.50;2329.60;;;;;;5033421;28;20392;-82
2021/08/30 00:43:22;;;;;;;11.52;8.93;;;384.50;2329.60;;;;;;5035097;28;20480;-83
2021/08/30 00:45:48;;;;;;;12.63;8.60;;;384.60;2329.60;;;;;;5026869;28;20049;-82
2021/08/30 00:48:13;;;;;;;10.70;8.95;;;384.50;2329.60;;;;;;5015149;28;20029;-82
2021/08/30 00:50:39;;;;;;;12.20;9.35;;;384.50;2329.60;;;;;;5031625;28;20028;-82
2021/08/30 00:53:05;;;;;;;10.65;8.68;;;384.50;2329.60;;;;;;5033488;28;20488;-82
2021/08/30 00:55:33;;;;;;;9.13;7.95;;;384.50;2329.60;;;;;;5033279;28;20018;-82
2021/08/30 00:57:58;;;;;;;9.70;8.70;;;384.50;2329.60;;;;;;5032929;28;20108;-81
2021/08/30 01:00:24;;;;;;;10.38;8.50;;;384.60;2329.60;;;;;;5034146;28;20181;-82
2021/08/30 01:02:50;;;;;;;8.75;7.78;;;384.50;2329.60;;;;;;5033528;28;20024;-82
2021/08/30 01:05:17;;;;;;;10.70;8.88;;;384.50;2329.60;;;;;;5033321;28;20052;-82
2021/08/30 01:08:17;;;;;;;9.82;7.18;;;384.40;2329.60;;;;;;5031662;28;20037;-82
2021/08/30 01:10:53;;;;;;;8.48;7.43;;;384.30;2329.60;;;;;;5031691;28;20029;-81
2021/08/30 01:13:39;;;;;;;;;;;384.30;2329.60;;;;;;5033212;28;20045;-83
2021/08/30 01:16:10;;;;;;;8.38;7.03;;;384.30;2329.60;;;;;;5032958;28;19952;-83
2021/08/30 01:18:36;;;;;;;9.75;7.50;;;384.30;2329.60;;;;;;5034283;28;20028;-83
2021/08/30 01:21:07;;;;;;;10.23;7.20;;;384.30;2329.60;;;;;;5033476;28;20025;-83
2021/08/30 01:23:39;;;;;;;8.85;7.22;;;384.30;2329.60;;;;;;5033408;28;20042;-82
2021/08/30 01:26:07;;;;;;;11.75;8.00;;;384.30;2329.60;;;;;;5034505;28;20026;-83
2021/08/30 01:29:11;;;;;;;7.90;7.10;;;384.30;2329.60;;;;;;5034011;28;20018;-82
2021/08/30 01:31:55;;;;;;;8.93;7.97;;;384.20;2329.60;;;;;;4998517;28;20034;-82
2021/08/30 01:34:23;;;;;;;11.40;10.20;;;384.10;2329.60;;;;;;4996116;28;20113;-83
2021/08/30 01:36:51;;;;;;;10.93;8.43;;;384.10;2329.60;;;;;;4996324;28;20026;-84
2021/08/30 01:39:18;;;;;;;19.17;11.25;;;384.10;2329.60;;;;;;4996042;28;20132;-84
2021/08/30 01:41:45;;;;;;;17.08;11.10;;;384.10;2329.60;;;;;;5012589;28;20045;-84
2021/08/30 01:44:12;;;;;;;10.48;9.07;;;384.10;2329.60;;;;;;4989016;28;20014;-82
2021/08/30 01:46:39;;;;;;;10.10;7.85;;;384.10;2329.60;;;;;;4976376;28;20900;-82
2021/08/30 01:49:06;;;;;;;13.70;8.52;;;384.10;2329.60;;;;;;4997786;28;20030;-81
2021/08/30 01:51:33;;;;;;;9.57;8.02;;;384.00;2329.60;;;;;;4995330;28;20021;-81
2021/08/30 01:53:59;;;;;;;12.27;7.93;;;384.00;2329.60;;;;;;5011923;28;20100;-81
2021/08/30 01:56:29;;;;;;;10.20;8.20;;;384.00;2329.60;;;;;;5012061;28;20772;-82
2021/08/30 02:01:40;;;;;;;10.70;8.25;;;384.00;2329.60;;;;;;5003202;28;20077;-82
2021/08/30 02:04:07;;;;;;;12.23;7.97;;;359.30;2329.60;;;;;;5011757;28;20037;-82
2021/08/30 02:06:34;;;;;;;11.13;8.02;;;384.00;2329.60;;;;;;4995877;28;20036;-83
2021/08/30 02:09:01;;;;;;;13.25;8.25;;;359.30;2329.60;;;;;;5031680;28;20033;-83
2021/08/30 02:11:32;;;;;;;8.75;7.75;;;359.30;2329.60;;;;;;5033671;28;20049;-83
2021/08/30 02:13:59;;;;;;;10.60;8.23;;;359.20;2329.60;;;;;;5018796;28;20113;-83
2021/08/30 02:16:26;;;;;;;10.32;8.48;;;359.20;2329.60;;;;;;5032609;28;20025;-84
2021/08/30 02:18:58;;;;;;;10.00;8.30;;;359.20;2329.60;;;;;;5033657;28;20040;-84
2021/08/30 02:21:50;;;;;;;11.38;7.70;;;359.10;2329.60;;;;;;5031897;28;20036;-83
2021/08/30 02:24:27;;;;;;;10.45;8.15;;;359.10;2329.60;;;;;;5032531;28;20065;-83
2021/08/30 02:27:06;;;;;;;10.73;7.80;;;359.30;2329.60;;;;;;5032644;28;20089;-83
2021/08/30 02:29:49;;;;;;;10.77;7.85;;;359.10;2329.60;;;;;;5030567;28;20032;-84
2021/08/30 02:32:17;;;;;;;10.85;7.60;;;359.10;2329.60;;;;;;5032509;28;20026;-83
2021/08/30 02:34:48;;;;;;;10.27;7.93;;;359.10;2329.60;;;;;;5031913;28;20116;-84
2021/08/30 02:37:15;;;;;;;11.65;8.38;;;359.00;2329.60;;;;;;5033275;28;20380;-83
2021/08/30 02:39:49;;;;;;;11.27;8.02;;;359.00;2329.60;;;;;;5032072;28;20052;-84
2021/08/30 02:42:15;;;;;;;9.55;7.85;;;359.00;2329.60;;;;;;5032759;28;20084;-84
2021/08/30 02:44:43;;;;;;;10.77;8.18;;;359.00;2329.60;;;;;;5031941;28;20033;-83
2021/08/30 02:47:10;;;;;;;14.57;9.18;;;359.00;2329.60;;;;;;5032860;28;20072;-83
2021/08/30 02:49:39;;;;;;;12.10;9.30;;;359.00;2329.60;;;;;;5031942;28;20055;-83
2021/08/30 02:52:06;;;;;;;13.38;8.30;;;358.90;2329.60;;;;;;5032946;28;20734;-84
2021/08/30 02:54:34;;;;;;;11.68;8.30;;;358.90;2329.60;;;;;;5031852;28;20488;-84
2021/08/30 02:57:03;;;;;;;12.60;8.88;;;358.90;2329.60;;;;;;5032247;28;20018;-85
2021/08/30 02:59:30;;;;;;;10.18;8.32;;;358.90;2329.60;;;;;;5031719;28;20032;-83
2021/08/30 03:01:57;;;;;;;13.48;8.57;;;358.80;2329.60;;;;;;5031912;28;20488;-83
2021/08/30 03:04:24;;;;;;;10.43;8.70;;;358.80;2329.60;;;;;;5032777;28;20037;-83
2021/08/30 03:06:51;;;;;;;13.35;9.05;;;358.70;2329.60;;;;;;5031692;28;20033;-83
2021/08/30 03:09:17;;;;;;;15.07;8.73;;;358.60;2329.60;;;;;;5031408;28;20048;-84
2021/08/30 03:11:43;;;;;;;12.00;9.13;;;358.60;2329.60;;;;;;5030870;28;20539;-82
2021/08/30 03:14:10;;;;;;;9.95;8.02;;;358.70;2329.60;;;;;;5031735;28;20358;-83
2021/08/30 03:16:40;;;;;;;14.80;8.82;;;358.70;2329.60;;;;;;5032483;28;20028;-83
2021/08/30 03:19:08;;;;;;;13.30;9.38;;;358.70;2329.60;;;;;;5031745;28;20095;-83
2021/08/30 03:21:34;;;;;;;11.32;8.65;;;358.70;2329.60;;;;;;5031533;28;20087;-84
2021/08/30 03:24:01;;;;;;;11.68;8.48;;;358.70;2329.60;;;;;;5031862;28;20026;-83
2021/08/30 03:26:28;;;;;;;12.23;9.27;;;358.80;2329.60;;;;;;5031380;28;20026;-83
2021/08/30 03:28:55;;;;;;;12.68;8.82;;;358.80;2329.60;;;;;;5031953;28;20021;-83
2021/08/30 03:31:21;;;;;;;10.93;8.60;;;358.70;2329.60;;;;;;5031302;28;20053;-83
2021/08/30 03:33:49;;;;;;;12.05;9.77;;;358.60;2329.60;;;;;;5037886;28;20032;-83
2021/08/30 03:36:15;;;;;;;16.48;10.25;;;358.80;2329.60;;;;;;5030691;28;20022;-81
2021/08/30 03:38:42;;;;;;;13.63;10.65;;;358.80;2329.60;;;;;;5031051;28;20422;-82
2021/08/30 03:41:08;;;;;;;11.77;9.68;;;358.80;2329.60;;;;;;5032338;28;20473;-84
2021/08/30 03:43:34;;;;;;;12.95;9.98;;;358.80;2329.60;;;;;;5028766;28;20049;-84
2021/08/30 03:46:00;;;;;;;15.45;10.55;;;358.80;2329.60;;;;;;5031888;28;20036;-85
2021/08/30 03:48:28;;;;;;;18.20;11.05;;;358.70;2329.60;;;;;;5031838;28;20039;-85
2021/08/30 03:50:55;;;;;;;15.95;11.13;;;358.80;2329.60;;;;;;5019004;28;20028;-84
2021/08/30 03:53:22;;;;;;;14.68;11.20;;;358.80;2329.60;;;;;;5023494;28;20044;-87
2021/08/30 03:55:49;;;;;;;12.02;9.85;;;358.80;2329.60;;;;;;5033525;28;20029;-82
2021/08/30 03:58:18;;;;;;;13.95;9.98;;;358.80;2329.60;;;;;;5035796;28;20054;-87
2021/08/30 04:00:44;;;;;;;16.80;10.40;;;358.80;2329.60;;;;;;5036766;28;20100;-87
2021/08/30 04:03:12;;;;;;;12.60;9.57;;;358.80;2329.60;;;;;;5029775;28;20086;-88
2021/08/30 04:05:40;;;;;;;13.07;9.35;;;358.90;2329.60;;;;;;5032174;28;20028;-87
2021/08/30 04:08:09;;;;;;;9.70;8.32;;;358.90;2329.60;;;;;;5035158;28;20017;-85
2021/08/30 04:10:36;;;;;;;9.27;7.55;;;358.90;2329.60;;;;;;5034233;28;20029;-85
2021/08/30 04:13:03;;;;;;;13.18;8.18;;;358.90;2329.60;;;;;;5032023;28;20046;-84
2021/08/30 04:15:30;;;;;;;12.38;8.15;;;358.90;2329.60;;;;;;5027938;28;20017;-84
2021/08/30 04:17:56;;;;;;;12.88;7.90;;;358.60;2329.60;;;;;;5033260;28;20025;-84
2021/08/30 04:20:22;;;;;;;10.38;8.85;;;358.60;2329.60;;;;;;5034798;28;20530;-83
2021/08/30 04:22:48;;;;;;;9.10;7.60;;;358.60;2329.60;;;;;;5035437;28;20112;-83
2021/08/30 04:25:15;;;;;;;10.52;7.90;;;358.60;2329.60;;;;;;5024098;28;20061;-83
2021/08/30 04:27:41;;;;;;;10.48;7.60;;;358.70;2329.60;;;;;;5038681;28;20113;-84
2021/08/30 04:30:07;;;;;;;9.70;7.70;;;358.60;2329.60;;;;;;5036744;28;20452;-83
2021/08/30 04:32:36;;;;;;;11.50;7.53;;;358.60;2329.60;;;;;;5035280;28;20037;-84
2021/08/30 04:35:02;;;;;;;10.43;6.40;;;358.80;2329.60;;;;;;5019342;28;20078;-83
2021/08/30 04:37:28;;;;;;;8.30;6.88;;;358.90;2329.60;;;;;;5022476;28;20033;-84
2021/08/30 04:39:54;;;;;;;11.02;7.63;;;358.80;2329.60;;;;;;5034384;28;20021;-83
2021/08/30 04:42:20;;;;;;;9.07;7.53;;;358.80;2329.60;;;;;;5034436;28;20604;-83
2021/08/30 04:44:46;;;;;;;10.73;7.72;;;358.80;2329.60;;;;;;5034161;28;20030;-84
2021/08/30 04:47:11;;;;;;;9.88;6.85;;;358.70;2329.60;;;;;;5035451;28;20025;-83
2021/08/30 04:49:40;;;;;;;13.15;8.23;;;358.70;2329.60;;;;;;5034043;28;20036;-83
2021/08/30 04:52:06;;;;;;;8.57;7.00;;;358.70;2329.60;;;;;;5034476;28;20029;-83
2021/08/30 04:54:32;;;;;;;11.60;8.68;;;358.70;2329.60;;;;;;5033918;28;20480;-84
2021/08/30 04:56:57;;;;;;;8.57;7.28;;;358.80;2329.60;;;;;;5034395;28;20031;-85
2021/08/30 04:59:23;;;;;;;9.80;7.22;;;358.80;2329.60;;;;;;5035477;28;20017;-85
2021/08/30 05:01:49;;;;;;;9.50;6.90;;;358.90;2329.60;;;;;;5034420;28;20871;-85
2021/08/30 05:04:14;;;;;;;7.55;6.25;;;358.90;2329.60;;;;;;5034177;28;20037;-86
2021/08/30 05:06:40;;;;;;;7.93;6.10;;;358.90;2329.60;;;;;;5033463;28;20128;-85
2021/08/30 05:09:06;;;;;;;6.97;5.60;;;359.00;2329.60;;;;;;5034204;28;20025;-84
2021/08/30 05:11:31;;;;;;;8.73;6.07;;;358.90;2329.60;;;;;;5034649;28;20042;-85
2021/08/30 05:13:59;;;;;;;8.57;6.03;;;359.00;2329.60;;;;;;5034114;28;20025;-84
2021/08/30 05:16:25;;;;;;;7.57;6.32;;;359.00;2329.60;;;;;;5020316;28;20017;-83
2021/08/30 05:18:51;;;;;;;6.22;5.38;;;359.10;2329.60;;;;;;5034731;28;20017;-83
2021/08/30 05:21:16;;;;;;;7.65;5.60;;;359.10;2329.60;;;;;;5032984;28;20503;-82
2021/08/30 05:23:42;;;;;;;8.73;5.95;;;359.10;2329.60;;;;;;5033516;28;20041;-82
2021/08/30 05:26:08;;;;;;;7.47;5.93;;;359.10;2329.60;;;;;;5032697;28;20120;-83
2021/08/30 05:28:34;;;;;;;8.30;6.55;;;359.10;2329.60;;;;;;5033237;28;20029;-83
2021/08/30 05:30:59;;;;;;;9.45;6.63;;;359.30;2329.60;;;;;;5034485;28;20435;-83
2021/08/30 05:33:25;;;;;;;7.18;5.90;;;359.30;2329.60;;;;;;5031684;28;20033;-82
2021/08/30 05:35:51;;;;;;;9.45;6.05;;;384.00;2329.60;;;;;;5028143;28;20021;-83
2021/08/30 05:38:17;;;;;;;7.15;5.60;;;384.00;2329.60;;;;;;5034193;28;20472;-84
2021/08/30 05:40:42;;;;;;;7.45;5.72;;;384.00;2329.60;;;;;;5036214;28;20029;-83
2021/08/30 05:43:08;;;;;;;6.32;5.13;;;384.10;2329.60;;;;;;5039574;28;20048;-83
2021/08/30 05:45:34;;;;;;;6.78;5.50;;;384.20;2329.60;;;;;;5029154;28;20060;-85
2021/08/30 05:48:00;;;;;;;10.80;6.00;;;384.20;2329.60;;;;;;5036252;28;20037;-84
2021/08/30 05:50:25;;;;;;;7.28;5.88;;;384.30;2329.60;;;;;;5033003;28;20033;-85
2021/08/30 05:52:51;;;;;;;6.28;4.80;;;384.40;2329.60;;;;;;5028623;28;20030;-85
2021/08/30 05:55:17;;;;;;;6.10;5.03;;;384.50;2329.60;;;;;;5027176;28;20018;-84
2021/08/30 05:57:43;;;;;;;8.18;5.90;;;384.60;2329.60;;;;;;5028795;28;20041;-84
2021/08/30 06:00:09;;;;;;;14.23;5.97;;;384.70;2329.60;;;;;;5024945;28;20021;-83
2021/08/30 06:02:35;;;;;;;6.78;5.13;;;384.80;2329.60;;;;;;5023251;28;20552;-83
2021/08/30 06:05:01;;;;;;;8.98;5.65;;;409.60;2355.20;;;;;;5023029;28;20112;-82
2021/08/30 06:07:27;;;;;;;9.90;4.97;;;409.80;2355.20;;;;;;5031287;28;20052;-83
2021/08/30 06:09:53;;;;;;;11.27;5.10;;;410.00;2355.20;;;;;;5025639;28;20480;-82
2021/08/30 06:12:18;;;;;;;12.18;5.28;;;410.10;2355.20;;;;;;5025372;28;20457;-82
2021/08/30 06:14:44;;;;;;;6.05;4.80;;;410.30;2355.20;;;;;;5025859;28;20488;-83
2021/08/30 06:17:10;;;;;;;4.82;4.00;;;410.40;2355.20;;;;;;5029279;28;20688;-83
2021/08/30 06:19:36;;;;;;;6.20;4.82;;;410.50;2355.20;;;;;;5025668;28;20025;-82
2021/08/30 06:22:02;;;;;;;5.25;4.40;;;435.20;2355.20;;;;;;5024660;28;20057;-84
2021/08/30 06:24:27;;;;;;;7.95;4.70;;;435.40;2355.20;;;;;;5022692;28;20053;-84
2021/08/30 06:26:53;;;;;;;11.70;4.70;;;435.50;2355.20;;;;;;5032289;28;20101;-85
2021/08/30 06:29:19;;;;;;;5.40;4.22;;;435.70;2355.20;;;;;;5029892;28;20502;-83
2021/08/30 06:31:45;;;;;;;5.93;4.45;;;435.70;2355.20;;;;;;5025153;28;20087;-84
2021/08/30 06:34:10;;;;;;;8.55;4.43;;;435.90;2355.20;;;;;;5024988;28;20025;-84
2021/08/30 06:36:36;;;;;;;7.07;4.20;;;436.00;2355.20;;;;;;5029955;28;20029;-84
2021/08/30 06:39:03;;;;;;;5.88;4.35;;;436.10;2355.20;;;;;;5028079;28;20469;-84
2021/08/30 06:41:28;;;;;;;5.68;4.07;;;460.80;2380.80;;;;;;5025205;28;20029;-82
2021/08/30 06:43:55;;;;;;;7.65;4.43;;;460.80;2380.80;;;;;;5021282;28;20460;-85
2021/08/30 06:46:21;;;;;;;5.07;3.70;;;461.00;2380.80;;;;;;5027562;28;20033;-85
2021/08/30 06:48:47;;;;;;;4.63;3.70;;;461.30;2380.80;;;;;;5021145;28;20032;-84
2021/08/30 06:51:12;;;;;;;6.95;4.32;;;461.40;2380.80;;;;;;5021767;28;20038;-85
2021/08/30 06:53:39;;;;;;;5.75;3.60;;;461.30;2380.80;;;;;;5027619;28;20044;-85
2021/08/30 06:56:05;;;;;;;5.30;4.15;;;461.70;2380.80;;;;;;5021191;28;20017;-85
2021/08/30 06:58:31;;;;;;;6.35;4.00;;;486.40;2380.80;;;;;;5025037;28;20099;-84
2021/08/30 07:00:57;;;;;;;6.85;3.83;;;486.50;2380.80;;;;;;5029434;28;20026;-88
2021/08/30 07:03:23;;;;;;;6.88;4.28;;;486.50;2380.80;;;;;;5019412;28;20821;-82
2021/08/30 07:05:49;;;;;;;6.55;4.35;;;486.80;2380.80;;;;;;5029265;28;20025;-85
2021/08/30 07:08:14;;;;;;;5.18;3.88;;;486.80;2380.80;;;;;;5030498;28;20030;-84
2021/08/30 07:10:40;;;;;;;4.68;3.70;;;486.70;2380.80;;;;;;5030035;28;20392;-84
2021/08/30 07:13:06;;;;;;;7.22;4.20;;;487.00;2380.80;;;;;;5025877;28;20087;-85
2021/08/30 07:15:32;;;;;;;8.60;4.35;;;487.00;2380.80;;;;;;5029382;28;20093;-83
2021/08/30 07:17:58;;;;;;;4.93;4.00;;;487.10;2380.80;;;;;;5023864;28;20088;-83
2021/08/30 07:20:23;;;;;;;4.57;3.88;;;487.20;2380.80;;;;;;5018363;28;20018;-82
2021/08/30 07:22:49;;;;;;;6.88;4.50;;;487.20;2380.80;;;;;;5015274;28;20543;-83
2021/08/30 07:25:15;;;;;;;5.10;4.10;;;487.30;2380.80;;;;;;5020865;28;20034;-83
2021/08/30 07:27:41;;;;;;;7.88;3.80;;;487.20;2380.80;;;;;;5026774;28;20022;-84
2021/08/30 07:30:07;;;;;;;4.93;3.72;;;512.20;2380.80;;;;;;5027317;28;20029;-84
2021/08/30 07:32:33;;;;;;;6.80;4.78;;;512.20;2380.80;;;;;;5032688;28;20029;-84
2021/08/30 07:34:59;;;;;;;6.18;4.47;;;512.50;2380.80;;;;;;5035082;28;20108;-84
2021/08/30 07:37:24;;;;;;;5.53;3.22;;;537.70;2406.40;;;;;;5033883;28;20489;-84
2021/08/30 07:39:50;;;;;;;4.95;3.95;;;512.70;2380.80;;;;;;5032742;28;20021;-84
2021/08/30 07:42:16;;;;;;;6.35;4.60;;;512.40;2380.80;;;;;;5033072;28;20056;-84
2021/08/30 07:44:42;;;;;;;5.65;4.18;;;512.30;2380.80;;;;;;5032182;28;20057;-84
2021/08/30 07:47:07;;;;;;;5.32;3.92;;;512.80;2380.80;;;;;;5038124;28;20041;-84
2021/08/30 07:49:33;;;;;;;6.95;4.28;;;512.70;2380.80;;;;;;5040066;28;20048;-84
2021/08/30 07:51:59;;;;;;;7.40;3.10;;;537.60;2406.40;;;;;;5045200;28;20498;-85
2021/08/30 07:54:25;;;;;;;5.10;3.33;;;538.10;2406.40;;;;;;5042908;28;20025;-86
2021/08/30 07:56:51;;;;;;;4.63;3.42;;;537.70;2406.40;;;;;;5034527;28;20168;-85
2021/08/30 07:59:17;;;;;;;4.38;3.35;;;537.90;2406.40;;;;;;5035699;28;20029;-85
2021/08/30 08:01:42;;;;;;;5.10;3.20;;;538.10;2406.40;;;;;;5034486;28;20410;-85
2021/08/30 08:04:08;;;;;;;5.30;3.42;;;538.00;2406.40;;;;;;5036188;28;20026;-86
2021/08/30 08:06:34;;;;;;;4.47;3.30;;;538.20;2406.40;;;;;;5028070;28;20033;-85
2021/08/30 08:09:00;;;;;;;6.10;4.28;;;563.40;2432.00;;;;;;5036196;28;20025;-86
2021/08/30 08:11:26;;;;;;;6.70;4.57;;;563.80;2432.00;;;;;;5027300;28;20057;-85
2021/08/30 08:13:51;;;;;;;5.57;3.92;;;588.80;2432.00;;;;;;5040843;28;20024;-86
2021/08/30 08:16:17;;;;;;;4.07;3.25;;;563.60;2432.00;;;;;;5040826;28;21004;-85
2021/08/30 08:18:43;;;;;;;5.70;3.45;;;563.30;2432.00;;;;;;5034595;28;20116;-86
2021/08/30 08:21:09;;;;;;;6.32;3.58;;;563.60;2432.00;;;;;;5039746;28;20048;-86
2021/08/30 08:23:36;;;;;;;6.95;3.88;;;563.70;2432.00;;;;;;5032310;28;20026;-86
2021/08/30 08:26:02;;;;;;;3.85;2.97;;;563.70;2432.00;;;;;;5032586;28;20079;-86
2021/08/30 08:28:28;;;;;;;7.30;3.40;;;564.10;2432.00;;;;;;5031890;28;20025;-85
2021/08/30 08:30:54;;;;;;;4.97;3.60;;;564.10;2432.00;;;;;;5031343;28;20025;-85
2021/08/30 08:33:20;;;;;;;5.38;3.25;;;589.40;2432.00;;;;;;5025220;28;20038;-85
2021/08/30 08:35:46;;;;;;;4.80;3.40;;;589.50;2432.00;;;;;;5032346;28;20091;-86
2021/08/30 08:38:12;;;;;;;6.03;3.70;;;615.00;2432.00;;;;;;5033133;28;20022;-85
2021/08/30 08:40:39;;;;;;;4.22;2.92;;;615.10;2432.00;;;;;;5030305;28;20041;-85
2021/08/30 08:43:12;;;;;;;6.22;3.40;;;640.00;2432.00;;;;;;5027446;28;20056;-86
2021/08/30 08:45:41;;;;;;;7.20;3.97;;;615.30;2432.00;;;;;;5027153;28;20029;-86
2021/08/30 08:48:08;;;;;;;5.38;3.65;;;615.20;2432.00;;;;;;5029513;28;20116;-86
2021/08/30 08:50:34;;;;;;;5.03;4.53;;;640.20;2432.00;;;;;;5033013;28;20044;-86
2021/08/30 08:53:04;;;;;;;6.72;4.00;;;615.30;2432.00;;;;;;5025586;28;20021;-86
2021/08/30 08:55:33;;;;;;;3.97;3.35;;;614.80;2432.00;;;;;;5031197;28;20472;-86
2021/08/30 08:58:03;;;;;;;9.38;3.53;;;615.10;2432.00;;;;;;5031473;28;20022;-86
2021/08/30 09:00:28;;;;;;;4.40;3.33;;;615.20;2432.00;;;;;;5028219;28;20017;-85
2021/08/30 09:02:54;;;;;;;6.03;3.30;;;640.00;2432.00;;;;;;5030235;28;20029;-86
2021/08/30 09:05:23;;;;;;;6.00;3.47;;;615.30;2432.00;;;;;;5026440;28;20108;-87
2021/08/30 09:07:49;;;;;;;4.00;2.83;;;640.20;2432.00;;;;;;5031393;28;20385;-86
2021/08/30 09:10:18;;;;;;;5.07;3.42;;;640.70;2432.00;;;;;;5022230;28;20056;-86
2021/08/30 09:12:47;;;;;;;7.30;3.88;;;640.40;2432.00;;;;;;5026064;28;20038;-85
2021/08/30 09:15:19;;;;;;;3.72;3.10;;;640.60;2432.00;;;;;;5031953;28;20068;-86
2021/08/30 09:17:55;;;;;;;5.53;3.80;;;640.30;2432.00;;;;;;5030804;28;20053;-86
2021/08/30 09:20:30;;;;;;;3.95;2.90;;;640.20;2432.00;;;;;;5024907;28;20405;-85
2021/08/30 09:22:56;;;;;;;5.75;3.38;;;640.80;2432.00;;;;;;5020931;28;20026;-86
2021/08/30 09:25:22;;;;;;;4.53;3.30;;;665.80;2432.00;;;;;;5030737;28;20131;-86
2021/08/30 09:27:51;;;;;;;4.38;2.88;;;666.00;2432.00;;;;;;5030911;28;20025;-86
2021/08/30 09:30:24;;;;;;;6.15;3.28;;;666.30;2432.00;;;;;;5030406;28;20034;-87
2021/08/30 09:32:50;;;;;;;3.90;3.30;;;665.90;2432.00;;;;;;5030439;28;20129;-85
2021/08/30 09:35:17;;;;;;;3.30;2.60;;;665.60;2432.00;;;;;;5029801;28;20920;-86
2021/08/30 09:37:45;;;;;;;4.57;2.65;;;666.00;2432.00;;;;;;5030943;28;20733;-87
2021/08/30 09:40:17;;;;;;;4.22;2.80;;;666.50;2432.00;;;;;;5028596;28;20022;-85
2021/08/30 09:42:51;;;;;;;4.82;3.20;;;691.50;2432.00;;;;;;5031534;28;20171;-86
2021/08/30 09:45:23;;;;;;;3.58;2.50;;;691.70;2432.00;;;;;;5032233;28;20499;-85
2021/08/30 09:48:04;;;;;;;7.88;3.65;;;691.50;2432.00;;;;;;5033615;28;20072;-86
2021/08/30 09:50:34;;;;;;;5.85;2.97;;;666.30;2432.00;;;;;;5029888;28;20029;-86
2021/08/30 09:53:01;;;;;;;3.72;2.67;;;666.10;2432.00;;;;;;5021101;28;20519;-88
2021/08/30 09:55:28;;;;;;;3.38;2.72;;;691.70;2432.00;;;;;;5029179;28;20033;-86
2021/08/30 09:57:56;;;;;;;4.13;2.88;;;691.70;2432.00;;;;;;5029049;28;20426;-86
2021/08/30 10:00:22;;;;;;;4.22;3.17;;;666.20;2432.00;;;;;;5026223;28;20021;-86
2021/08/30 10:02:52;;;;;;;4.18;2.67;;;666.10;2432.00;;;;;;5024767;28;20476;-84
2021/08/30 10:05:19;;;;;;;4.43;2.70;;;691.40;2432.00;;;;;;5029652;28;20029;-85
2021/08/30 10:07:46;;;;;;;4.63;2.38;;;692.10;2406.40;;;;;;5027389;28;20025;-85
2021/08/30 10:10:14;;;;;;;5.13;3.50;;;666.30;2432.00;;;;;;5021817;28;20114;-85
2021/08/30 10:12:41;;;;;;;3.88;2.67;;;666.50;2432.00;;;;;;5024665;28;20034;-85
2021/08/30 10:15:10;;;;;;;4.35;2.63;;;691.40;2432.00;;;;;;5023031;28;20022;-86
2021/08/30 10:17:43;;;;;;;3.33;2.50;;;717.00;2355.20;;;;;;5025601;28;20021;-85
2021/08/30 10:20:34;;;;;;;3.83;2.75;;;717.10;2355.20;;;;;;5025014;28;20496;-85
2021/08/30 10:23:06;;;;;;;9.80;2.90;;;717.20;2380.80;;;;;;5028555;28;20388;-86
2021/08/30 10:25:39;;;;;;;3.25;1.92;;;742.40;2304.00;;;;;;5028542;28;20021;-85
2021/08/30 10:28:12;;;;;;;5.90;2.17;;;716.80;2150.40;;;;;;5026062;28;20492;-84
2021/08/30 10:30:50;;;;;;;3.45;2.25;;;691.30;2278.40;;;;;;5028791;28;20033;-85
2021/08/30 10:33:21;;;;;;;3.28;2.30;;;666.20;2304.00;;;;;;5024861;28;20025;-84
2021/08/30 10:35:46;;;;;;;3.13;2.25;;;640.80;2355.20;;;;;;5026377;28;20022;-85
2021/08/30 10:38:20;;;;;;;3.63;2.40;;;640.50;2432.00;;;;;;5027926;28;20028;-86
2021/08/30 10:40:52;;;;;;;2.70;2.00;;;640.70;2432.00;;;;;;5025692;28;20092;-85
2021/08/30 10:43:19;;;;;;;2.72;2.10;;;665.80;2355.20;;;;;;5021428;28;20123;-86
2021/08/30 10:45:56;;;;;;;4.07;3.28;;;666.20;2304.00;;;;;;5032294;28;20028;-84
2021/08/30 10:48:33;;;;;;;5.40;2.92;;;665.80;2406.40;;;;;;5026777;28;20103;-87
2021/08/30 10:50:59;;;;;;;4.82;2.55;;;692.10;2252.80;;;;;;5028203;28;20496;-85
2021/08/30 10:53:26;;;;;;;5.13;2.65;;;691.40;2304.00;;;;;;5029869;28;20056;-83
2021/08/30 10:55:55;;;;;;;4.25;2.17;;;666.30;2355.20;;;;;;5025043;28;20040;-83
2021/08/30 10:58:22;;;;;;;2.70;1.98;;;691.40;2380.80;;;;;;5025123;28;20057;-84
2021/08/30 11:00:50;;;;;;;2.85;1.85;;;666.20;2304.00;;;;;;5031158;28;20028;-82
2021/08/30 11:03:33;;;;;;;4.00;2.10;;;666.50;2252.80;;;;;;5028881;28;20060;-84
2021/08/30 11:06:15;;;;;;;5.63;2.33;;;665.80;2278.40;;;;;;5033663;28;20120;-85
2021/08/30 11:08:43;;;;;;;5.10;2.05;;;691.70;2227.20;;;;;;5035043;28;20036;-84
2021/08/30 11:11:19;;;;;;;3.42;2.53;;;717.60;2176.00;;;;;;5029421;28;20531;-84
2021/08/30 11:14:04;;;;;;;3.78;2.10;;;717.70;2124.80;;;;;;5029251;28;20042;-85
2021/08/30 11:16:33;;;;;;;5.88;2.30;;;743.00;2150.40;;;;;;5041373;28;20579;-85
2021/08/30 11:19:02;;;;;;;5.10;1.95;;;743.30;2048.00;;;;;;5031383;28;20492;-86
2021/08/30 11:21:50;;;;;;;5.20;1.98;;;768.20;1843.20;;;;;;5035457;28;20718;-84
2021/08/30 11:24:29;;;;;;;4.93;2.40;;;716.80;1996.80;;;;;;5035890;28;20017;-84
2021/08/30 11:26:57;;;;;;;5.80;3.60;;;717.70;1971.20;;;;;;5026692;28;20112;-85
2021/08/30 11:29:23;;;;;;;2.25;1.70;;;768.10;1894.40;;;;;;5032089;28;20036;-86
2021/08/30 11:31:49;;;;;;;3.63;2.10;;;793.70;1843.20;;;;;;5026759;28;20018;-84
2021/08/30 11:34:27;;;;;;;5.70;1.92;;;768.90;1792.00;;;;;;5019088;28;20041;-84
2021/08/30 11:36:54;;;;;;;3.10;2.03;;;794.10;1740.80;;;;;;5016016;28;20396;-83
2021/08/30 11:39:21;;;;;;;4.03;1.75;;;768.80;1689.60;;;;;;5020015;28;20107;-84
2021/08/30 11:41:55;;;;;;;3.83;1.90;;;793.90;1664.00;;;;;;5026428;28;20029;-85
2021/08/30 11:44:21;;;;;;;3.65;2.10;;;742.60;1817.60;;;;;;5023897;28;20079;-84
2021/08/30 11:46:50;;;;;;;3.78;2.97;;;692.10;1894.40;;;;;;5019292;28;20037;-84
2021/08/30 11:49:17;;;;;;;2.70;1.58;;;666.40;1945.60;;;;;;5018556;28;20493;-84
2021/08/30 11:51:46;;;;;;;5.88;2.67;;;691.40;1945.60;;;;;;5026172;28;20399;-83
2021/08/30 11:54:29;;;;;;;2.72;2.00;;;742.40;1817.60;;;;;;5021791;28;20025;-83
2021/08/30 11:57:11;;;;;;;3.67;2.90;;;768.50;1740.80;;;;;;5035777;28;20433;-83
2021/08/30 11:59:46;;;;;;;3.08;2.03;;;794.40;1664.00;;;;;;5041631;28;20049;-83
2021/08/30 12:02:14;;;;;;;6.07;2.15;;;819.20;1664.00;;;;;;5029452;28;20031;-83
2021/08/30 12:04:40;;;;;;;4.50;2.40;;;845.00;1612.80;;;;;;5026136;28;20022;-82
2021/08/30 12:07:08;;;;;;;5.88;3.25;;;794.30;1638.40;;;;;;5030820;28;20026;-83
2021/08/30 12:09:47;;;;;;;3.05;1.80;;;768.60;1689.60;;;;;;5029710;28;20044;-82
2021/08/30 12:12:21;;;;;;;2.13;1.70;;;717.60;1766.40;;;;;;5029065;28;20038;-84
2021/08/30 12:14:59;;;;;;;3.47;1.73;;;743.10;1715.20;;;;;;5028810;28;20026;-83
2021/08/30 12:17:31;;;;;;;5.78;2.05;;;768.70;1689.60;;;;;;5033852;28;20037;-84
2021/08/30 12:20:28;;;;;;;7.40;3.20;;;794.00;1689.60;;;;;;5036981;28;20116;-84
2021/08/30 12:22:57;;;;;;;4.07;2.60;;;793.70;1612.80;;;;;;5028200;28;20025;-85